Time;durP1;ratioP1;P1;durP2;ratioP2;P2;SDS_P1;SDS_P2;PMS_P1;PMS_P2;Temp;Humidity;BMP_temperature;BMP_pressure;BME280_temperature;BME280_humidity;BME280_pressure;Samples;Min_cycle;Max_cycle;Signal;HPM_P1;HPM_P2
2021/10/10 00:01:33;;;;;;;1.33;1.23;;;5.50;99.90;;;;;;4935542;29;20619;-67
2021/10/10 00:04:03;;;;;;;1.55;1.45;;;5.40;99.90;;;;;;4935555;29;20236;-67
2021/10/10 00:06:32;;;;;;;1.23;0.90;;;5.40;99.90;;;;;;4935382;29;20189;-67
2021/10/10 00:09:00;;;;;;;2.17;2.05;;;5.30;99.90;;;;;;4935310;29;20304;-67
2021/10/10 00:11:28;;;;;;;6.20;1.42;;;5.30;99.90;;;;;;4935027;29;20216;-67
2021/10/10 00:13:56;;;;;;;3.80;2.67;;;5.40;99.90;;;;;;4935192;29;20188;-67
2021/10/10 00:16:25;;;;;;;1.20;1.08;;;5.40;99.90;;;;;;4935595;29;20204;-66
2021/10/10 00:18:53;;;;;;;1.75;1.63;;;5.40;99.90;;;;;;4935521;29;20185;-67
2021/10/10 00:21:22;;;;;;;1.02;0.85;;;5.40;99.90;;;;;;4935299;29;20217;-66
2021/10/10 00:23:51;;;;;;;1.88;1.70;;;5.40;99.90;;;;;;4933381;29;20205;-67
2021/10/10 00:26:19;;;;;;;1.25;1.15;;;5.30;99.90;;;;;;4933543;29;20182;-66
2021/10/10 00:28:47;;;;;;;1.90;1.80;;;5.30;99.90;;;;;;4934812;29;20208;-66
2021/10/10 00:31:15;;;;;;;1.00;0.77;;;5.30;99.90;;;;;;4934693;29;20359;-65
2021/10/10 00:33:44;;;;;;;1.55;1.25;;;5.20;99.90;;;;;;4934552;29;20235;-65
2021/10/10 00:36:12;;;;;;;2.85;0.80;;;5.20;99.90;;;;;;4934500;29;20193;-67
2021/10/10 00:38:40;;;;;;;0.98;0.70;;;5.20;99.90;;;;;;4934743;29;20196;-67
2021/10/10 00:41:09;;;;;;;2.70;2.50;;;5.20;99.90;;;;;;4934567;29;20337;-67
2021/10/10 00:43:38;;;;;;;4.85;0.98;;;5.20;99.90;;;;;;4934480;29;20188;-67
2021/10/10 00:46:06;;;;;;;1.92;1.25;;;5.20;99.90;;;;;;4934660;29;20181;-66
2021/10/10 00:48:34;;;;;;;1.75;1.65;;;5.20;99.90;;;;;;4935034;29;20597;-66
2021/10/10 00:51:02;;;;;;;0.88;0.68;;;5.20;99.90;;;;;;4935089;29;20183;-65
2021/10/10 00:53:32;;;;;;;1.98;1.13;;;5.20;99.90;;;;;;4934675;29;20181;-66
2021/10/10 00:56:03;;;;;;;1.60;1.50;;;5.10;99.90;;;;;;4934637;29;20205;-65
2021/10/10 00:58:33;;;;;;;0.90;0.70;;;5.10;99.90;;;;;;4934434;29;20324;-66
2021/10/10 01:01:02;;;;;;;1.05;0.90;;;5.10;99.90;;;;;;4934826;29;20536;-67
2021/10/10 01:03:31;;;;;;;1.58;1.15;;;5.00;99.90;;;;;;4934284;29;20264;-66
2021/10/10 01:05:59;;;;;;;1.00;0.73;;;5.10;99.90;;;;;;4934531;29;20200;-66
2021/10/10 01:08:27;;;;;;;1.38;1.15;;;5.00;99.90;;;;;;4934512;29;20180;-67
2021/10/10 01:10:55;;;;;;;0.80;0.60;;;5.00;99.90;;;;;;4934114;29;20537;-65
2021/10/10 01:13:24;;;;;;;0.95;0.85;;;5.00;99.90;;;;;;4933859;29;20681;-67
2021/10/10 01:15:54;;;;;;;1.02;0.93;;;5.00;99.90;;;;;;4934202;29;20197;-66
2021/10/10 01:18:23;;;;;;;1.55;1.40;;;5.00;99.90;;;;;;4934219;29;20240;-67
2021/10/10 01:20:54;;;;;;;1.23;1.13;;;5.00;99.90;;;;;;4934337;29;20183;-66
2021/10/10 01:23:23;;;;;;;1.25;1.15;;;5.00;99.90;;;;;;4934350;29;20189;-66
2021/10/10 01:25:51;;;;;;;2.42;1.77;;;5.00;99.90;;;;;;4934270;29;20204;-66
2021/10/10 01:28:20;;;;;;;5.03;1.60;;;4.90;99.90;;;;;;4933873;29;20193;-66
2021/10/10 01:30:48;;;;;;;1.20;1.10;;;4.90;99.90;;;;;;4934093;29;20185;-65
2021/10/10 01:33:16;;;;;;;2.25;2.15;;;4.80;99.90;;;;;;4934104;29;20223;-66
2021/10/10 01:35:44;;;;;;;1.00;0.90;;;4.70;99.90;;;;;;4935021;29;20532;-67
2021/10/10 01:38:18;;;;;;;1.00;0.90;;;4.70;99.90;;;;;;4935181;29;20193;-68
2021/10/10 01:40:47;;;;;;;0.88;0.57;;;4.60;99.90;;;;;;4934805;29;20571;-67
2021/10/10 01:43:16;;;;;;;1.63;0.90;;;4.60;99.90;;;;;;4934198;29;20200;-67
2021/10/10 01:45:44;;;;;;;2.28;2.05;;;4.50;99.90;;;;;;4934108;29;20240;-66
2021/10/10 01:48:12;;;;;;;1.85;1.27;;;4.50;99.90;;;;;;4949937;23;20232;-66
2021/10/10 01:50:40;;;;;;;1.83;1.73;;;4.40;99.90;;;;;;4934656;29;20672;-68
2021/10/10 01:53:08;;;;;;;1.00;0.80;;;4.40;99.90;;;;;;4934135;29;20221;-67
2021/10/10 01:55:38;;;;;;;11.75;2.05;;;4.30;99.90;;;;;;4934278;29;20186;-66
2021/10/10 01:58:06;;;;;;;0.80;0.50;;;4.30;99.90;;;;;;4933051;29;20567;-68
2021/10/10 02:00:35;;;;;;;2.13;1.40;;;4.30;99.90;;;;;;4934224;29;20188;-67
2021/10/10 02:03:03;;;;;;;1.70;1.55;;;4.30;99.90;;;;;;4934168;29;20244;-68
2021/10/10 02:05:32;;;;;;;0.95;0.85;;;4.30;99.90;;;;;;4934397;29;20468;-66
2021/10/10 02:08:00;;;;;;;1.40;1.00;;;4.20;99.90;;;;;;4934206;29;20193;-66
2021/10/10 02:10:28;;;;;;;1.10;0.77;;;4.20;99.90;;;;;;4934102;29;20189;-67
2021/10/10 02:12:58;;;;;;;1.42;1.23;;;4.20;99.90;;;;;;4933955;29;20212;-66
2021/10/10 02:15:26;;;;;;;1.40;1.25;;;4.20;99.90;;;;;;4934598;29;20200;-67
2021/10/10 02:17:54;;;;;;;1.77;1.27;;;4.10;99.90;;;;;;4934617;29;20201;-67
2021/10/10 02:20:22;;;;;;;4.50;0.75;;;4.10;99.90;;;;;;4934769;29;20244;-66
2021/10/10 02:22:50;;;;;;;1.05;0.77;;;4.00;99.90;;;;;;4937530;29;20217;-66
2021/10/10 02:25:18;;;;;;;3.17;1.30;;;4.00;99.90;;;;;;4937825;29;20216;-66
2021/10/10 02:27:46;;;;;;;2.00;1.23;;;4.00;99.90;;;;;;4937285;29;20181;-66
2021/10/10 02:30:16;;;;;;;0.90;0.60;;;4.00;99.90;;;;;;4937971;29;20581;-65
2021/10/10 02:32:44;;;;;;;2.03;1.83;;;4.00;99.90;;;;;;4937102;29;20231;-67
2021/10/10 02:35:13;;;;;;;1.85;1.73;;;3.90;99.90;;;;;;4936981;29;20233;-68
2021/10/10 02:37:41;;;;;;;1.20;1.10;;;3.90;99.90;;;;;;4936910;29;20204;-67
2021/10/10 02:40:11;;;;;;;0.90;0.60;;;3.90;99.90;;;;;;4937013;29;20592;-67
2021/10/10 02:42:39;;;;;;;1.60;1.50;;;3.90;99.90;;;;;;4936687;29;20217;-67
2021/10/10 02:45:08;;;;;;;1.20;1.10;;;3.90;99.90;;;;;;4936864;29;20200;-68
2021/10/10 02:47:38;;;;;;;1.42;1.20;;;4.00;99.90;;;;;;4936740;29;20195;-67
2021/10/10 02:50:07;;;;;;;2.90;2.70;;;4.00;99.90;;;;;;4937204;29;20642;-67
2021/10/10 02:52:36;;;;;;;2.33;2.13;;;4.00;99.90;;;;;;4936508;29;20613;-67
2021/10/10 02:55:04;;;;;;;1.50;1.00;;;3.90;99.90;;;;;;4936696;29;20549;-67
2021/10/10 02:57:32;;;;;;;1.00;0.80;;;3.90;99.90;;;;;;4937117;29;20705;-67
2021/10/10 03:00:00;;;;;;;3.80;0.90;;;3.90;99.90;;;;;;4936590;29;20228;-67
2021/10/10 03:02:28;;;;;;;1.15;1.05;;;3.80;99.90;;;;;;4936159;29;20628;-67
2021/10/10 03:04:58;;;;;;;5.93;0.82;;;3.80;99.90;;;;;;4936447;29;20207;-67
2021/10/10 03:07:26;;;;;;;1.00;0.90;;;3.80;99.90;;;;;;4936410;29;20181;-66
2021/10/10 03:09:54;;;;;;;0.90;0.65;;;3.80;99.90;;;;;;4936366;29;20204;-65
2021/10/10 03:12:22;;;;;;;3.38;3.17;;;3.80;99.90;;;;;;4936287;29;20625;-66
2021/10/10 03:14:51;;;;;;;1.00;0.90;;;3.80;99.90;;;;;;4936491;29;20674;-66
2021/10/10 03:17:19;;;;;;;1.50;1.40;;;3.90;99.90;;;;;;4936156;29;20693;-66
2021/10/10 03:19:47;;;;;;;7.22;1.75;;;3.80;99.90;;;;;;4936197;29;20248;-67
2021/10/10 03:22:16;;;;;;;2.55;2.35;;;3.80;99.90;;;;;;4935983;29;20216;-66
2021/10/10 03:24:44;;;;;;;2.22;2.03;;;3.80;99.90;;;;;;4935743;29;20256;-65
2021/10/10 03:27:12;;;;;;;1.15;1.05;;;3.80;99.90;;;;;;4936111;29;20217;-66
2021/10/10 03:29:40;;;;;;;1.30;1.20;;;3.80;99.90;;;;;;4934585;29;20231;-66
2021/10/10 03:32:08;;;;;;;1.15;1.00;;;3.80;99.90;;;;;;4935748;29;20256;-68
2021/10/10 03:34:36;;;;;;;1.35;1.25;;;3.80;99.90;;;;;;4935311;29;20173;-67
2021/10/10 03:37:05;;;;;;;2.20;1.67;;;3.80;99.90;;;;;;4935780;29;20267;-66
2021/10/10 03:39:34;;;;;;;0.80;0.50;;;3.70;99.90;;;;;;4935852;29;20189;-67
2021/10/10 03:42:02;;;;;;;1.25;1.15;;;3.70;99.90;;;;;;4935574;29;20291;-67
2021/10/10 03:44:30;;;;;;;1.10;1.00;;;3.70;99.90;;;;;;4935664;29;20193;-67
2021/10/10 03:46:58;;;;;;;1.52;1.33;;;3.70;99.90;;;;;;4935901;29;20181;-67
2021/10/10 03:49:27;;;;;;;1.15;1.02;;;3.60;99.90;;;;;;4935469;29;20196;-67
2021/10/10 03:51:55;;;;;;;1.13;1.02;;;3.60;99.90;;;;;;4935510;29;20213;-66
2021/10/10 03:57:35;;;;;;;1.02;0.90;;;3.50;99.90;;;;;;5088951;27;20632;-67
2021/10/10 04:00:09;;;;;;;2.88;2.05;;;3.40;99.90;;;;;;5088676;28;20190;-67
2021/10/10 04:02:41;;;;;;;0.90;0.60;;;3.40;99.90;;;;;;5088739;28;20202;-67
2021/10/10 04:05:19;;;;;;;1.20;1.08;;;3.30;99.90;;;;;;5089042;28;20225;-67
2021/10/10 04:07:48;;;;;;;1.42;1.00;;;3.40;99.90;;;;;;5088700;28;20220;-67
2021/10/10 04:10:16;;;;;;;2.40;2.30;;;3.30;99.90;;;;;;5089124;28;20191;-67
2021/10/10 04:12:46;;;;;;;0.80;0.60;;;3.30;99.90;;;;;;5088891;28;20222;-67
2021/10/10 04:15:14;;;;;;;1.75;1.05;;;3.30;99.90;;;;;;5088824;28;20187;-67
2021/10/10 04:17:42;;;;;;;0.90;0.60;;;3.30;99.90;;;;;;5088792;28;20644;-66
2021/10/10 04:20:13;;;;;;;7.28;2.30;;;3.30;99.90;;;;;;5088785;28;20180;-67
2021/10/10 04:22:42;;;;;;;1.23;1.13;;;3.30;99.90;;;;;;5088467;28;20743;-67
2021/10/10 04:25:11;;;;;;;1.48;1.38;;;3.30;99.90;;;;;;5088915;28;20286;-67
2021/10/10 04:27:39;;;;;;;1.80;1.38;;;3.30;99.90;;;;;;5088459;28;20199;-67
2021/10/10 04:30:12;;;;;;;0.95;0.70;;;3.30;99.90;;;;;;5088650;28;20191;-67
2021/10/10 04:32:41;;;;;;;2.28;1.58;;;3.40;99.90;;;;;;5088685;28;20215;-66
2021/10/10 04:35:09;;;;;;;7.38;1.45;;;3.40;99.90;;;;;;5088765;28;20176;-66
2021/10/10 04:37:37;;;;;;;2.10;1.95;;;3.40;99.90;;;;;;5088336;28;20215;-66
2021/10/10 04:40:07;;;;;;;2.15;1.02;;;3.40;99.90;;;;;;5088567;28;20258;-66
2021/10/10 04:42:36;;;;;;;0.90;0.77;;;3.40;99.90;;;;;;5088753;28;20214;-67
2021/10/10 04:45:05;;;;;;;0.90;0.75;;;3.40;99.90;;;;;;5087518;28;20216;-66
2021/10/10 04:47:35;;;;;;;1.70;1.60;;;3.40;99.90;;;;;;5087389;28;20180;-66
2021/10/10 04:50:05;;;;;;;1.20;0.85;;;3.40;99.90;;;;;;5087749;28;20644;-67
2021/10/10 04:52:33;;;;;;;1.58;1.35;;;3.50;99.90;;;;;;5086754;28;20257;-66
2021/10/10 04:55:02;;;;;;;1.95;1.80;;;3.40;99.90;;;;;;5087693;28;20191;-67
2021/10/10 04:57:30;;;;;;;1.52;1.42;;;3.40;99.90;;;;;;5087880;28;20712;-67
2021/10/10 04:59:58;;;;;;;3.13;2.92;;;3.50;99.90;;;;;;5087926;28;20195;-67
2021/10/10 05:02:26;;;;;;;0.80;0.60;;;3.50;99.90;;;;;;5087911;28;20604;-67
2021/10/10 05:04:56;;;;;;;4.28;1.45;;;3.40;99.90;;;;;;5086191;28;20195;-67
2021/10/10 05:07:24;;;;;;;1.42;0.90;;;3.50;99.90;;;;;;5082647;28;20196;-66
2021/10/10 05:09:52;;;;;;;0.90;0.60;;;3.50;99.90;;;;;;5074303;28;20229;-66
2021/10/10 05:12:20;;;;;;;2.03;1.35;;;3.50;99.90;;;;;;5073758;28;20210;-66
2021/10/10 05:14:48;;;;;;;1.10;1.00;;;3.60;99.90;;;;;;5074157;28;20169;-67
2021/10/10 05:17:16;;;;;;;3.40;1.85;;;3.60;99.90;;;;;;5074156;28;20262;-67
2021/10/10 05:19:44;;;;;;;1.00;0.70;;;3.70;99.90;;;;;;5073916;28;20180;-67
2021/10/10 05:22:14;;;;;;;1.10;0.98;;;3.70;99.90;;;;;;5073820;28;20204;-67
2021/10/10 05:24:42;;;;;;;1.80;1.70;;;3.70;99.90;;;;;;5073793;28;20192;-66
2021/10/10 05:27:10;;;;;;;2.00;1.13;;;3.60;99.90;;;;;;5074161;28;20629;-67
2021/10/10 05:29:42;;;;;;;0.90;0.60;;;3.70;99.90;;;;;;5073513;28;20184;-66
2021/10/10 05:32:10;;;;;;;0.90;0.80;;;3.70;99.90;;;;;;5073549;28;20212;-67
2021/10/10 05:34:38;;;;;;;1.65;1.55;;;3.70;99.90;;;;;;5073858;28;20196;-66
2021/10/10 05:37:06;;;;;;;0.80;0.50;;;3.70;99.90;;;;;;5074995;28;20265;-66
2021/10/10 05:39:35;;;;;;;1.17;0.98;;;3.80;99.90;;;;;;5075411;28;20234;-67
2021/10/10 05:42:04;;;;;;;2.45;1.20;;;3.80;99.90;;;;;;5076021;28;20212;-66
2021/10/10 05:44:32;;;;;;;1.45;0.95;;;3.80;99.90;;;;;;5075155;28;20184;-67
2021/10/10 05:47:00;;;;;;;2.30;1.15;;;3.80;99.90;;;;;;5076360;28;20184;-68
2021/10/10 05:49:28;;;;;;;1.20;1.10;;;3.70;99.90;;;;;;5077998;28;20218;-67
2021/10/10 05:51:58;;;;;;;1.75;1.52;;;3.80;99.90;;;;;;5073090;28;20211;-66
2021/10/10 05:54:28;;;;;;;1.15;1.05;;;3.80;99.90;;;;;;5073150;28;20246;-68
2021/10/10 05:56:59;;;;;;;0.80;0.50;;;3.90;99.90;;;;;;5072966;28;20281;-66
2021/10/10 05:59:30;;;;;;;1.00;0.90;;;3.90;99.90;;;;;;5073281;28;20679;-66
2021/10/10 06:01:58;;;;;;;2.65;2.45;;;4.00;99.90;;;;;;5073031;28;20216;-67
2021/10/10 06:04:26;;;;;;;1.50;1.00;;;4.00;99.90;;;;;;5073307;28;20188;-67
2021/10/10 06:06:54;;;;;;;1.08;0.98;;;4.10;99.90;;;;;;5071601;28;20199;-67
2021/10/10 06:09:22;;;;;;;1.20;0.85;;;4.10;99.90;;;;;;5072905;28;20233;-66
2021/10/10 06:11:51;;;;;;;2.40;2.30;;;4.30;99.90;;;;;;5072663;28;20611;-67
2021/10/10 06:14:20;;;;;;;0.90;0.80;;;4.20;99.90;;;;;;5073220;28;20208;-68
2021/10/10 06:16:48;;;;;;;0.80;0.50;;;4.30;99.90;;;;;;5073292;28;20261;-67
2021/10/10 06:19:16;;;;;;;1.33;0.93;;;4.40;99.90;;;;;;5072270;28;20664;-66
2021/10/10 06:21:44;;;;;;;2.08;1.67;;;4.50;99.90;;;;;;5073156;28;20258;-66
2021/10/10 06:24:13;;;;;;;1.13;0.80;;;4.50;99.90;;;;;;5073266;28;20241;-66
2021/10/10 06:26:41;;;;;;;1.33;0.90;;;4.60;99.90;;;;;;5072815;28;20218;-68
2021/10/10 06:29:13;;;;;;;0.85;0.60;;;4.70;99.90;;;;;;5071255;28;20245;-66
2021/10/10 06:31:42;;;;;;;4.43;2.17;;;4.80;99.90;;;;;;5072637;28;20208;-68
2021/10/10 06:34:11;;;;;;;3.00;1.13;;;4.90;99.90;;;;;;5072609;28;20168;-69
2021/10/10 06:36:44;;;;;;;1.20;0.90;;;4.90;99.90;;;;;;5072398;28;20657;-67
2021/10/10 06:39:13;;;;;;;0.90;0.50;;;5.10;99.90;;;;;;5072536;28;20656;-68
2021/10/10 06:41:41;;;;;;;1.05;0.90;;;5.20;99.90;;;;;;5072349;28;20218;-68
2021/10/10 06:44:09;;;;;;;6.00;1.80;;;5.30;99.90;;;;;;5072365;28;20223;-66
2021/10/10 06:46:37;;;;;;;1.38;1.13;;;5.40;99.90;;;;;;5072191;28;20188;-67
2021/10/10 06:49:07;;;;;;;1.10;1.00;;;5.40;99.90;;;;;;5072175;28;20192;-67
2021/10/10 06:51:35;;;;;;;6.15;2.17;;;5.60;99.90;;;;;;5072199;28;20227;-67
2021/10/10 06:54:03;;;;;;;3.67;3.47;;;5.70;99.90;;;;;;5071868;28;20251;-66
2021/10/10 06:56:31;;;;;;;3.28;1.42;;;5.80;99.90;;;;;;5072050;28;20206;-67
2021/10/10 06:59:00;;;;;;;1.15;1.05;;;5.90;99.90;;;;;;5071956;28;20223;-70
2021/10/10 07:01:28;;;;;;;1.85;1.08;;;6.00;99.90;;;;;;5072130;28;20207;-67
2021/10/10 07:03:57;;;;;;;1.70;1.60;;;6.10;99.90;;;;;;5071902;28;20526;-68
2021/10/10 07:06:26;;;;;;;3.78;1.90;;;6.10;99.90;;;;;;5072237;28;20826;-66
2021/10/10 07:08:55;;;;;;;1.10;1.00;;;6.20;99.90;;;;;;5071983;28;20190;-67
2021/10/10 07:11:23;;;;;;;1.55;1.25;;;6.20;99.90;;;;;;5071861;28;20207;-66
2021/10/10 07:13:51;;;;;;;1.88;1.50;;;6.30;99.90;;;;;;5071774;28;20212;-68
2021/10/10 07:16:22;;;;;;;0.90;0.70;;;6.40;99.90;;;;;;5072111;28;20497;-67
2021/10/10 07:18:52;;;;;;;2.75;2.55;;;6.60;99.90;;;;;;5071471;28;20279;-68
2021/10/10 07:21:26;;;;;;;6.93;1.67;;;6.60;99.90;;;;;;5071820;28;20242;-67
2021/10/10 07:24:51;;;;;;;1.98;1.77;;;6.60;99.90;;;;;;5071496;28;20203;-68
2021/10/10 07:26:45;;;;;;;2.85;1.40;;;6.60;99.90;;;;;;5071640;28;20206;-67
2021/10/10 07:29:13;;;;;;;1.33;1.00;;;6.80;99.90;;;;;;5071778;28;20222;-67
2021/10/10 07:31:41;;;;;;;2.75;2.05;;;6.90;99.90;;;;;;5071401;28;20216;-66
2021/10/10 07:34:09;;;;;;;3.20;1.13;;;7.00;99.90;;;;;;5071483;28;20204;-69
2021/10/10 07:36:37;;;;;;;2.55;2.33;;;7.00;99.90;;;;;;5072285;28;20655;-67
2021/10/10 07:39:07;;;;;;;4.00;1.85;;;7.10;99.90;;;;;;5071596;28;20615;-67
2021/10/10 07:41:38;;;;;;;3.13;2.88;;;7.20;99.90;;;;;;5071901;28;20684;-67
2021/10/10 07:44:08;;;;;;;3.38;1.20;;;7.20;99.90;;;;;;5071575;28;20672;-68
2021/10/10 07:46:38;;;;;;;3.97;2.47;;;7.40;99.90;;;;;;5071580;28;20606;-69
2021/10/10 07:49:09;;;;;;;1.10;1.00;;;7.50;99.90;;;;;;5084343;22;20598;-65
2021/10/10 07:51:38;;;;;;;3.92;1.77;;;7.60;99.90;;;;;;5032036;28;20212;-65
2021/10/10 07:54:08;;;;;;;4.22;4.00;;;7.60;99.90;;;;;;5031950;28;20213;-66
2021/10/10 07:56:36;;;;;;;0.90;0.70;;;7.70;99.90;;;;;;5031852;28;20200;-65
2021/10/10 07:59:04;;;;;;;2.70;2.50;;;7.80;99.90;;;;;;5031949;28;20538;-65
2021/10/10 08:01:32;;;;;;;1.45;1.15;;;7.90;99.90;;;;;;5031876;28;20262;-64
2021/10/10 08:04:01;;;;;;;4.57;4.18;;;8.00;99.90;;;;;;5031688;28;20178;-65
2021/10/10 08:06:29;;;;;;;5.30;1.83;;;8.20;99.90;;;;;;5032490;28;20223;-66
2021/10/10 08:08:57;;;;;;;2.08;1.35;;;8.30;99.90;;;;;;5030482;28;20201;-65
2021/10/10 08:11:27;;;;;;;2.85;1.40;;;8.40;99.90;;;;;;5031489;28;20213;-66
2021/10/10 08:13:55;;;;;;;2.95;1.30;;;8.40;99.90;;;;;;5031868;28;20181;-65
2021/10/10 08:16:23;;;;;;;2.53;1.85;;;8.50;99.90;;;;;;5032040;28;20185;-66
2021/10/10 08:18:51;;;;;;;2.00;1.85;;;8.50;99.90;;;;;;5031744;28;20244;-67
2021/10/10 08:21:20;;;;;;;1.85;1.70;;;8.60;99.90;;;;;;5031561;28;20300;-65
2021/10/10 08:23:48;;;;;;;1.60;1.45;;;8.70;99.90;;;;;;5031405;28;20197;-65
2021/10/10 08:26:16;;;;;;;4.70;1.83;;;8.80;99.90;;;;;;5031749;28;20189;-64
2021/10/10 08:28:46;;;;;;;1.83;1.48;;;8.90;99.90;;;;;;5031905;28;20635;-66
2021/10/10 08:31:14;;;;;;;1.23;0.90;;;9.00;99.90;;;;;;5031389;28;20205;-67
2021/10/10 08:33:42;;;;;;;5.47;2.22;;;9.00;99.90;;;;;;5031847;28;20716;-66
2021/10/10 08:36:10;;;;;;;3.53;1.95;;;9.10;99.90;;;;;;5031755;28;20696;-66
2021/10/10 08:38:38;;;;;;;1.00;0.80;;;9.20;99.90;;;;;;5031581;28;20193;-65
2021/10/10 08:41:11;;;;;;;1.55;1.45;;;9.40;99.90;;;;;;5031321;28;20193;-66
2021/10/10 08:43:41;;;;;;;2.45;1.98;;;9.40;99.90;;;;;;5034074;28;20186;-65
2021/10/10 08:46:13;;;;;;;1.92;1.67;;;9.50;99.90;;;;;;5035035;28;20188;-66
2021/10/10 08:48:41;;;;;;;2.10;1.45;;;9.70;99.90;;;;;;5034807;28;20235;-65
2021/10/10 08:51:09;;;;;;;3.43;2.53;;;9.80;99.90;;;;;;5034890;28;20213;-67
2021/10/10 08:53:57;;;;;;;2.57;1.20;;;9.90;99.90;;;;;;5034882;28;20413;-64
2021/10/10 08:56:26;;;;;;;0.93;0.70;;;10.00;99.90;;;;;;5034978;28;20470;-67
2021/10/10 08:58:54;;;;;;;1.83;1.48;;;10.00;99.90;;;;;;5035210;28;20881;-66
2021/10/10 09:01:29;;;;;;;2.27;1.63;;;10.00;99.90;;;;;;5035216;28;20568;-66
2021/10/10 09:03:58;;;;;;;0.90;0.60;;;10.10;99.90;;;;;;5035025;28;20775;-66
2021/10/10 09:06:26;;;;;;;2.60;2.20;;;10.20;99.90;;;;;;5035142;28;20278;-66
2021/10/10 09:08:54;;;;;;;2.43;0.80;;;10.40;99.90;;;;;;5035319;28;20419;-65
2021/10/10 09:11:23;;;;;;;1.73;1.40;;;10.60;99.90;;;;;;5033901;28;20455;-65
2021/10/10 09:14:02;;;;;;;1.33;1.23;;;10.70;99.90;;;;;;5035106;28;20417;-65
2021/10/10 09:16:36;;;;;;;1.70;1.60;;;10.90;99.90;;;;;;5035251;28;20408;-66
2021/10/10 09:19:29;;;;;;;1.40;0.93;;;10.90;99.90;;;;;;5035111;28;20448;-64
2021/10/10 09:22:01;;;;;;;2.67;2.43;;;10.90;99.90;;;;;;5035674;28;20444;-67
2021/10/10 09:24:29;;;;;;;2.70;2.40;;;11.10;99.90;;;;;;5035725;28;20416;-66
2021/10/10 09:26:57;;;;;;;3.50;1.50;;;11.10;99.90;;;;;;5036094;28;20853;-67
2021/10/10 09:29:35;;;;;;;1.80;1.30;;;11.20;99.90;;;;;;5038273;28;20781;-66
2021/10/10 09:32:07;;;;;;;1.90;1.33;;;11.30;99.90;;;;;;5034955;28;20440;-67
2021/10/10 09:34:37;;;;;;;1.40;1.00;;;11.40;99.90;;;;;;5035068;28;20408;-67
2021/10/10 09:37:07;;;;;;;3.13;1.97;;;11.60;99.90;;;;;;5034925;28;20428;-65
2021/10/10 09:39:37;;;;;;;1.40;1.07;;;11.50;99.90;;;;;;5031985;28;20464;-64
2021/10/10 09:42:06;;;;;;;1.07;0.97;;;11.60;99.90;;;;;;5033560;28;20436;-64
2021/10/10 09:44:53;;;;;;;1.63;1.20;;;11.70;99.90;;;;;;5032436;28;20420;-65
2021/10/10 09:47:22;;;;;;;1.80;1.70;;;11.70;99.90;;;;;;5034188;28;20412;-66
2021/10/10 09:49:51;;;;;;;1.33;0.80;;;11.80;99.90;;;;;;5032422;28;20418;-66
2021/10/10 09:52:19;;;;;;;1.30;1.13;;;11.80;99.90;;;;;;5033669;28;20471;-64
2021/10/10 09:54:51;;;;;;;1.90;1.43;;;11.90;99.90;;;;;;5033466;28;20408;-66
2021/10/10 09:57:21;;;;;;;1.20;0.77;;;12.00;99.90;;;;;;5033860;28;20432;-66
2021/10/10 09:59:49;;;;;;;1.67;0.87;;;12.10;99.90;;;;;;5035963;28;20471;-66
2021/10/10 10:02:18;;;;;;;1.20;1.07;;;12.10;99.90;;;;;;5037134;28;20414;-65
2021/10/10 10:04:50;;;;;;;1.50;1.20;;;12.20;99.90;;;;;;5036911;28;20443;-67
2021/10/10 10:07:20;;;;;;;5.47;1.10;;;12.20;99.90;;;;;;5036057;28;20500;-65
2021/10/10 10:09:52;;;;;;;1.63;1.53;;;12.30;99.90;;;;;;5035423;28;20420;-65
2021/10/10 10:12:21;;;;;;;1.20;1.10;;;12.50;99.90;;;;;;5034730;28;20457;-66
2021/10/10 10:14:51;;;;;;;1.47;0.70;;;12.60;99.90;;;;;;5034305;28;20932;-65
2021/10/10 10:17:22;;;;;;;2.17;1.60;;;12.60;99.90;;;;;;5033153;28;21136;-65
2021/10/10 10:19:54;;;;;;;1.70;1.60;;;12.70;99.90;;;;;;5033477;28;20872;-67
2021/10/10 10:22:23;;;;;;;1.00;0.77;;;12.70;99.90;;;;;;5033669;28;20451;-66
2021/10/10 10:24:52;;;;;;;2.93;1.40;;;12.70;99.90;;;;;;5033871;28;20794;-66
2021/10/10 10:27:21;;;;;;;1.70;0.70;;;12.70;99.90;;;;;;5034076;28;20412;-64
2021/10/10 10:29:53;;;;;;;2.43;1.87;;;12.70;99.90;;;;;;5033540;28;20416;-66
2021/10/10 10:32:23;;;;;;;2.13;1.93;;;12.70;99.90;;;;;;5033317;28;20443;-66
2021/10/10 10:35:01;;;;;;;2.50;1.80;;;12.70;99.90;;;;;;5033500;28;20463;-66
2021/10/10 10:37:52;;;;;;;1.47;1.37;;;12.80;99.90;;;;;;5032524;28;20486;-65
2021/10/10 10:40:36;;;;;;;2.27;2.07;;;12.80;99.90;;;;;;5033623;28;20521;-66
2021/10/10 10:43:06;;;;;;;1.50;1.07;;;12.70;99.90;;;;;;5031065;28;20442;-65
2021/10/10 10:45:37;;;;;;;1.50;0.70;;;12.80;99.90;;;;;;5032540;28;20463;-65
2021/10/10 10:48:07;;;;;;;1.80;1.20;;;12.90;99.90;;;;;;5032920;28;20829;-67
2021/10/10 10:50:40;;;;;;;1.20;1.03;;;12.80;99.90;;;;;;5031815;28;20414;-67
2021/10/10 10:53:09;;;;;;;1.30;1.20;;;12.90;99.90;;;;;;5032164;28;20444;-66
2021/10/10 10:55:39;;;;;;;1.87;1.43;;;13.00;99.90;;;;;;5032501;28;20837;-66
2021/10/10 10:58:10;;;;;;;2.60;1.83;;;13.10;99.90;;;;;;5032404;28;20955;-65
2021/10/10 11:00:40;;;;;;;1.50;1.13;;;13.10;99.90;;;;;;5030594;28;20471;-66
2021/10/10 11:03:18;;;;;;;3.87;1.90;;;13.20;99.90;;;;;;5031095;28;20486;-65
2021/10/10 11:05:50;;;;;;;1.50;1.17;;;13.30;99.90;;;;;;5031690;28;20428;-66
2021/10/10 11:08:36;;;;;;;1.70;1.20;;;13.30;99.90;;;;;;5032105;28;21211;-66
2021/10/10 11:11:23;;;;;;;1.30;1.10;;;13.20;99.90;;;;;;5032165;28;20848;-66
2021/10/10 11:13:55;;;;;;;2.50;1.33;;;13.30;99.90;;;;;;5031886;28;20416;-65
2021/10/10 11:16:30;;;;;;;4.10;3.60;;;13.40;99.90;;;;;;5032238;28;20414;-65
2021/10/10 11:19:03;;;;;;;1.00;0.77;;;13.40;99.90;;;;;;5032168;28;20404;-66
2021/10/10 11:21:36;;;;;;;1.50;1.30;;;13.60;99.90;;;;;;5032053;28;20579;-66
2021/10/10 11:24:09;;;;;;;2.23;2.03;;;13.60;99.90;;;;;;5031942;28;20777;-66
2021/10/10 11:26:44;;;;;;;2.07;1.97;;;13.60;99.90;;;;;;5047417;28;20941;-66
2021/10/10 11:29:16;;;;;;;4.30;1.30;;;13.60;99.90;;;;;;5030693;28;20410;-66
2021/10/10 11:31:46;;;;;;;1.43;0.70;;;13.60;99.90;;;;;;5032274;28;20534;-65
2021/10/10 11:34:16;;;;;;;2.90;1.20;;;13.60;99.90;;;;;;5031924;28;20409;-66
2021/10/10 11:36:47;;;;;;;7.70;2.10;;;13.60;99.90;;;;;;5047514;28;20421;-66
2021/10/10 11:39:17;;;;;;;1.43;1.30;;;13.70;99.90;;;;;;5031978;28;20424;-65
2021/10/10 11:41:48;;;;;;;5.37;1.10;;;13.80;99.90;;;;;;5031088;28;21023;-65
2021/10/10 11:44:17;;;;;;;3.43;2.00;;;13.90;99.90;;;;;;5028712;28;20402;-64
2021/10/10 11:46:49;;;;;;;4.00;2.50;;;13.90;99.90;;;;;;5029170;28;20791;-64
2021/10/10 11:49:35;;;;;;;1.93;1.00;;;14.00;99.90;;;;;;5031902;28;21014;-65
2021/10/10 11:52:18;;;;;;;2.03;1.00;;;14.00;99.90;;;;;;5031924;28;20433;-65
2021/10/10 11:54:48;;;;;;;1.33;1.10;;;14.10;99.90;;;;;;5032378;28;20419;-64
2021/10/10 11:57:17;;;;;;;1.10;0.67;;;14.20;99.90;;;;;;5032266;28;20833;-67
2021/10/10 11:59:50;;;;;;;1.10;0.73;;;14.30;99.90;;;;;;5031965;28;20947;-66
2021/10/10 12:02:23;;;;;;;1.00;0.70;;;14.30;99.90;;;;;;5032102;28;21002;-66
2021/10/10 12:05:02;;;;;;;1.53;1.43;;;14.30;99.90;;;;;;5032171;28;20428;-66
2021/10/10 12:07:32;;;;;;;2.10;1.90;;;14.30;99.90;;;;;;5032076;28;20489;-64
2021/10/10 12:10:01;;;;;;;1.20;0.90;;;14.40;99.90;;;;;;5030964;28;20528;-65
2021/10/10 12:12:30;;;;;;;2.03;1.37;;;14.40;99.90;;;;;;5032018;28;20956;-65
2021/10/10 12:14:59;;;;;;;3.50;1.27;;;14.20;99.90;;;;;;5031621;28;20402;-65
2021/10/10 12:17:34;;;;;;;2.70;1.53;;;14.20;99.90;;;;;;5031133;28;20490;-66
2021/10/10 12:20:22;;;;;;;2.40;1.00;;;14.20;99.90;;;;;;5036163;28;20455;-65
2021/10/10 12:22:55;;;;;;;1.53;1.43;;;14.30;99.90;;;;;;5035798;28;20549;-64
2021/10/10 12:25:25;;;;;;;1.87;0.93;;;14.20;99.90;;;;;;5035766;28;20825;-64
2021/10/10 12:27:59;;;;;;;2.80;2.10;;;14.20;99.90;;;;;;5035670;28;20408;-66
2021/10/10 12:30:29;;;;;;;1.10;0.70;;;14.20;99.90;;;;;;5035801;28;20390;-66
2021/10/10 12:32:58;;;;;;;11.43;1.83;;;14.20;99.90;;;;;;5035214;28;20414;-65
2021/10/10 12:35:26;;;;;;;3.07;1.30;;;14.40;99.90;;;;;;5036121;28;20423;-66
2021/10/10 12:37:57;;;;;;;1.23;1.13;;;14.40;99.90;;;;;;5034565;28;20443;-67
2021/10/10 12:40:28;;;;;;;2.00;1.90;;;14.50;99.90;;;;;;5035793;28;20547;-66
2021/10/10 12:42:57;;;;;;;1.27;1.17;;;14.50;99.90;;;;;;5035940;28;20444;-65
2021/10/10 12:45:30;;;;;;;2.40;1.50;;;14.50;99.90;;;;;;5035903;28;20432;-66
2021/10/10 12:48:00;;;;;;;1.43;1.33;;;14.60;99.90;;;;;;5035868;28;20411;-66
2021/10/10 12:50:28;;;;;;;1.20;0.90;;;14.60;99.90;;;;;;5035813;28;20395;-66
2021/10/10 12:52:58;;;;;;;2.57;2.37;;;14.60;99.90;;;;;;5036109;28;20436;-66
2021/10/10 12:55:27;;;;;;;3.23;0.93;;;14.70;99.90;;;;;;5035378;28;20402;-66
2021/10/10 12:57:57;;;;;;;1.13;1.03;;;14.70;99.90;;;;;;5035355;28;20928;-67
2021/10/10 13:00:27;;;;;;;1.67;1.53;;;14.60;99.90;;;;;;5035098;28;20452;-64
2021/10/10 13:02:56;;;;;;;1.20;0.70;;;14.60;99.90;;;;;;5034777;28;20453;-66
2021/10/10 13:05:24;;;;;;;3.43;2.30;;;14.60;99.90;;;;;;5034889;28;20390;-65
2021/10/10 13:07:52;;;;;;;1.40;0.90;;;14.50;99.90;;;;;;5034968;28;20470;-65
2021/10/10 13:10:22;;;;;;;4.60;3.23;;;14.60;99.90;;;;;;5049945;28;20395;-65